createdAt,value
2022-11-24T00:01:17.848Z,6.00
2022-11-24T00:03:47.278Z,6.00
2022-11-24T00:06:16.749Z,6.10
2022-11-24T00:08:46.628Z,6.20
2022-11-24T00:11:16.416Z,6.20
2022-11-24T00:13:45.056Z,6.30
2022-11-24T00:16:16.271Z,6.20
2022-11-24T00:18:46.602Z,6.30
2022-11-24T00:21:15.336Z,6.40
2022-11-24T00:23:44.128Z,6.40
2022-11-24T00:26:14.144Z,6.50
2022-11-24T00:28:43.441Z,6.50
2022-11-24T00:31:20.865Z,6.50
2022-11-24T00:33:50.877Z,6.40
2022-11-24T00:36:20.119Z,6.50
2022-11-24T00:38:48.749Z,6.50
2022-11-24T00:41:16.896Z,6.50
2022-11-24T00:43:44.881Z,6.60
2022-11-24T00:46:13.157Z,6.60
2022-11-24T00:48:42.642Z,6.80
2022-11-24T00:51:13.810Z,6.70
2022-11-24T00:53:42.705Z,6.70
2022-11-24T00:56:11.653Z,6.80
2022-11-24T00:58:41.853Z,6.80
2022-11-24T01:01:12.884Z,6.80
2022-11-24T01:03:42.944Z,6.80
2022-11-24T01:06:17.143Z,6.80
2022-11-24T01:08:45.749Z,6.80
2022-11-24T01:11:15.223Z,6.80
2022-11-24T01:13:44.634Z,6.90
2022-11-24T01:16:17.345Z,7.00
2022-11-24T01:18:47.045Z,7.00
2022-11-24T01:21:15.795Z,7.00
2022-11-24T01:23:43.986Z,7.00
2022-11-24T01:26:15.028Z,7.00
2022-11-24T01:28:47.171Z,7.00
2022-11-24T01:31:16.886Z,7.10
2022-11-24T01:33:46.523Z,7.10
2022-11-24T01:36:14.739Z,7.10
2022-11-24T01:38:42.867Z,7.10
2022-11-24T01:41:13.888Z,7.10
2022-11-24T01:43:42.796Z,7.20
2022-11-24T01:46:18.414Z,7.20
2022-11-24T01:48:52.135Z,7.20
2022-11-24T01:51:23.563Z,7.20
2022-11-24T01:53:56.064Z,7.20
2022-11-24T01:56:27.658Z,7.20
2022-11-24T01:58:59.859Z,7.20
2022-11-24T02:01:29.362Z,7.20
2022-11-24T02:03:59.556Z,7.10
2022-11-24T02:06:35.392Z,7.10
2022-11-24T02:09:09.949Z,7.10
2022-11-24T02:11:40.563Z,7.20
2022-11-24T02:14:11.254Z,7.20
2022-11-24T02:16:42.525Z,7.20
2022-11-24T02:19:20.510Z,7.30
2022-11-24T02:21:48.630Z,7.20
2022-11-24T02:24:23.508Z,7.20
2022-11-24T02:26:53.069Z,7.20
2022-11-24T02:29:21.548Z,7.30
2022-11-24T02:31:53.602Z,7.30
2022-11-24T02:34:21.887Z,7.30
2022-11-24T02:36:49.960Z,7.30
2022-11-24T02:39:18.485Z,7.30
2022-11-24T02:41:52.461Z,7.30
2022-11-24T02:44:25.935Z,7.40
2022-11-24T02:47:03.999Z,7.40
2022-11-24T02:49:32.311Z,7.40
2022-11-24T02:52:00.443Z,7.40
2022-11-24T02:54:28.655Z,7.40
2022-11-24T02:56:57.080Z,7.40
2022-11-24T02:59:26.840Z,7.50
2022-11-24T03:01:55.092Z,7.50
2022-11-24T03:04:23.226Z,7.60
2022-11-24T03:06:51.445Z,7.50
2022-11-24T03:09:19.875Z,7.50
2022-11-24T03:11:48.070Z,7.60
2022-11-24T03:14:16.274Z,7.60
2022-11-24T03:16:45.927Z,7.60
2022-11-24T03:19:14.134Z,7.70
2022-11-24T03:21:42.287Z,7.70
2022-11-24T03:24:10.464Z,7.70
2022-11-24T03:26:38.500Z,7.70
2022-11-24T03:29:06.587Z,7.70
2022-11-24T03:31:34.955Z,7.80
2022-11-24T03:34:04.446Z,8.20
2022-11-24T03:36:32.413Z,8.00
2022-11-24T03:39:00.500Z,7.80
2022-11-24T03:41:28.560Z,7.80
2022-11-24T03:43:56.560Z,7.80
2022-11-24T03:46:24.906Z,7.80
2022-11-24T03:48:53.018Z,7.80
2022-11-24T03:51:22.480Z,8.00
2022-11-24T03:53:50.564Z,8.00
2022-11-24T03:56:18.614Z,7.90
2022-11-24T03:58:46.769Z,7.90
2022-11-24T04:01:14.842Z,7.90
2022-11-24T04:03:43.531Z,8.00
2022-11-24T04:06:12.290Z,7.90
2022-11-24T04:08:41.801Z,7.90
2022-11-24T04:11:31.308Z,7.90
2022-11-24T04:13:58.646Z,7.90
2022-11-24T04:16:27.091Z,8.00
2022-11-24T04:18:55.956Z,8.00
2022-11-24T04:21:24.252Z,8.00
2022-11-24T04:23:54.207Z,8.00
2022-11-24T04:26:22.318Z,8.00
2022-11-24T04:28:50.548Z,8.00
2022-11-24T04:31:19.328Z,8.00
2022-11-24T04:33:47.521Z,8.10
2022-11-24T04:36:15.719Z,8.00
2022-11-24T04:39:26.037Z,8.10
2022-11-24T04:41:33.635Z,8.10
2022-11-24T04:44:01.760Z,8.00
2022-11-24T04:46:29.891Z,8.00
2022-11-24T04:48:58.066Z,8.10
2022-11-24T04:51:26.191Z,8.10
2022-11-24T04:53:54.314Z,8.00
2022-11-24T04:56:22.587Z,8.00
2022-11-24T04:58:52.291Z,8.00
2022-11-24T05:01:20.564Z,8.00
2022-11-24T05:03:48.734Z,8.00
2022-11-24T05:06:16.968Z,8.00
2022-11-24T05:08:47.972Z,8.00
2022-11-24T05:11:16.578Z,8.10
2022-11-24T05:13:44.770Z,8.10
2022-11-24T05:16:14.423Z,8.10
2022-11-24T05:18:42.556Z,8.10
2022-11-24T05:21:10.689Z,8.10
2022-11-24T05:23:38.932Z,8.10
2022-11-24T05:26:07.482Z,8.10
2022-11-24T05:28:35.726Z,8.00
2022-11-24T05:31:05.018Z,8.10
2022-11-24T05:33:35.036Z,8.10
2022-11-24T05:36:04.369Z,8.00
2022-11-24T05:38:33.088Z,8.00
2022-11-24T05:41:02.206Z,8.00
2022-11-24T05:43:30.757Z,7.90
2022-11-24T05:46:00.955Z,7.90
2022-11-24T05:48:29.837Z,7.90
2022-11-24T05:51:01.024Z,7.90
2022-11-24T05:53:31.371Z,7.90
2022-11-24T05:55:59.538Z,7.70
2022-11-24T05:58:27.919Z,7.70
2022-11-24T06:00:56.049Z,7.60
2022-11-24T06:03:24.962Z,7.50
2022-11-24T06:05:53.238Z,7.50
2022-11-24T06:08:26.795Z,7.40
2022-11-24T06:11:17.278Z,7.30
2022-11-24T06:13:47.172Z,7.30
2022-11-24T06:16:16.135Z,7.20
2022-11-24T06:18:44.564Z,7.10
2022-11-24T06:21:12.795Z,7.10
2022-11-24T06:23:42.707Z,7.10
2022-11-24T06:26:11.122Z,7.00
2022-11-24T06:28:40.820Z,7.00
2022-11-24T06:31:09.925Z,7.00
2022-11-24T06:33:39.663Z,6.90
2022-11-24T06:36:11.861Z,6.90
2022-11-24T06:38:41.593Z,6.90
2022-11-24T06:41:13.968Z,6.80
2022-11-24T06:43:43.541Z,6.80
2022-11-24T06:46:14.113Z,6.90
2022-11-24T06:48:42.231Z,6.90
2022-11-24T06:51:13.855Z,7.00
2022-11-24T06:53:43.281Z,7.10
2022-11-24T06:56:16.438Z,7.20
2022-11-24T06:58:46.410Z,7.30
2022-11-24T07:01:16.831Z,7.40
2022-11-24T07:03:45.101Z,7.60
2022-11-24T07:06:13.143Z,7.80
2022-11-24T07:08:42.568Z,8.00
2022-11-24T07:11:12.823Z,8.30
2022-11-24T07:13:40.932Z,8.50
2022-11-24T07:16:14.221Z,8.80
2022-11-24T07:18:42.582Z,8.70
2022-11-24T07:21:10.740Z,8.60
2022-11-24T07:23:39.054Z,8.50
2022-11-24T07:26:09.639Z,8.40
2022-11-24T07:28:38.510Z,8.30
2022-11-24T07:31:08.112Z,8.20
2022-11-24T07:33:36.323Z,8.10
2022-11-24T07:36:06.991Z,8.00
2022-11-24T07:38:36.205Z,8.00
2022-11-24T07:41:05.489Z,8.10
2022-11-24T07:43:36.690Z,8.10
2022-11-24T07:46:06.377Z,8.30
2022-11-24T07:48:34.934Z,8.80
2022-11-24T07:51:04.317Z,9.70
2022-11-24T07:53:33.181Z,10.40
2022-11-24T07:56:02.967Z,10.20
2022-11-24T07:58:33.138Z,10.30
2022-11-24T08:01:10.674Z,10.40
2022-11-24T08:03:38.834Z,10.60
2022-11-24T08:06:24.139Z,11.20
2022-11-24T08:08:54.493Z,12.20
2022-11-24T08:11:22.828Z,13.20
2022-11-24T08:13:50.817Z,13.70
2022-11-24T08:16:21.052Z,13.50
2022-11-24T08:18:52.076Z,13.10
2022-11-24T08:21:20.788Z,12.60
2022-11-24T08:23:48.804Z,12.30
2022-11-24T08:26:19.352Z,12.20
2022-11-24T08:28:48.464Z,12.20
2022-11-24T08:31:18.757Z,12.10
2022-11-24T08:33:48.394Z,12.20
2022-11-24T08:36:18.033Z,12.10
2022-11-24T08:38:46.979Z,11.80
2022-11-24T08:41:17.140Z,11.50
2022-11-24T08:43:45.410Z,11.30
2022-11-24T08:46:17.074Z,11.30
2022-11-24T08:48:48.106Z,11.30
2022-11-24T08:51:19.511Z,11.30
2022-11-24T08:53:47.919Z,11.10
2022-11-24T08:56:16.133Z,11.00
2022-11-24T08:58:44.164Z,11.10
2022-11-24T09:01:14.886Z,11.20
2022-11-24T09:03:50.032Z,11.20
2022-11-24T09:06:22.724Z,11.20
2022-11-24T09:08:51.412Z,11.00
2022-11-24T09:11:19.711Z,10.90
2022-11-24T09:13:47.719Z,10.80
2022-11-24T09:16:17.705Z,10.70
2022-11-24T09:18:46.345Z,10.60
2022-11-24T09:21:16.489Z,10.50
2022-11-24T09:23:46.962Z,10.50
2022-11-24T09:26:16.685Z,10.40
2022-11-24T09:28:45.786Z,10.30
2022-11-24T09:31:15.617Z,10.10
2022-11-24T09:33:44.302Z,10.00
2022-11-24T09:36:12.470Z,10.00
2022-11-24T09:38:40.873Z,10.00
2022-11-24T09:42:07.217Z,9.90
2022-11-24T09:44:52.380Z,9.90
2022-11-24T09:47:30.571Z,9.90
2022-11-24T09:50:04.069Z,9.80
2022-11-24T09:52:41.986Z,9.80
2022-11-24T09:55:26.454Z,9.80
2022-11-24T09:58:04.479Z,9.70
2022-11-24T10:00:34.783Z,9.60
2022-11-24T10:03:02.854Z,9.70
2022-11-24T10:05:35.057Z,9.60
2022-11-24T10:08:12.861Z,9.60
2022-11-24T10:10:50.705Z,9.60
2022-11-24T10:13:37.445Z,9.50
2022-11-24T10:16:13.520Z,9.50
2022-11-24T10:18:54.380Z,9.50
2022-11-24T10:21:43.052Z,9.60
2022-11-24T10:24:32.842Z,9.60
2022-11-24T10:27:04.311Z,9.60
2022-11-24T10:29:37.677Z,9.60
2022-11-24T10:32:13.229Z,9.60
2022-11-24T10:34:45.203Z,9.40
2022-11-24T10:37:18.004Z,9.50
2022-11-24T10:39:59.823Z,9.40
2022-11-24T10:42:31.501Z,9.50
2022-11-24T10:45:11.512Z,9.40
2022-11-24T10:47:40.216Z,9.30
2022-11-24T10:50:19.409Z,9.30
2022-11-24T10:52:52.526Z,9.30
2022-11-24T10:55:21.687Z,9.30
2022-11-24T10:57:49.835Z,9.30
2022-11-24T11:00:35.926Z,9.30
2022-11-24T11:03:18.783Z,9.30
2022-11-24T11:05:52.276Z,9.30
2022-11-24T11:08:26.721Z,9.40
2022-11-24T11:11:18.007Z,9.40
2022-11-24T11:13:54.754Z,9.50
2022-11-24T11:16:30.510Z,9.50
2022-11-24T11:18:58.566Z,9.50
2022-11-24T11:21:32.699Z,9.60
2022-11-24T11:24:01.754Z,9.60
2022-11-24T11:26:34.794Z,9.70
2022-11-24T11:34:55.338Z,10.20
2022-11-24T11:37:27.250Z,10.30
2022-11-24T11:39:56.789Z,10.40
2022-11-24T11:43:00.737Z,10.50
2022-11-24T11:45:22.877Z,10.60
2022-11-24T11:47:57.200Z,10.80
2022-11-24T11:50:30.186Z,10.90
2022-11-24T11:53:19.197Z,11.10
2022-11-24T11:55:57.265Z,11.20
2022-11-24T11:58:49.175Z,11.30
2022-11-24T12:01:37.913Z,11.30
2022-11-24T12:04:17.520Z,11.30
2022-11-24T12:07:08.548Z,11.40
2022-11-24T12:09:50.600Z,11.60
2022-11-24T12:12:46.657Z,11.60
2022-11-24T12:15:23.854Z,11.40
2022-11-24T12:17:56.672Z,11.30
2022-11-24T12:20:38.614Z,11.10
2022-11-24T12:23:19.091Z,11.00
2022-11-24T12:25:52.994Z,11.00
2022-11-24T12:28:37.920Z,11.00
2022-11-24T12:31:07.908Z,11.00
2022-11-24T12:34:04.796Z,11.00
2022-11-24T12:36:53.323Z,11.10
2022-11-24T12:39:28.775Z,11.10
2022-11-24T12:42:09.411Z,11.20
2022-11-24T12:44:55.296Z,11.20
2022-11-24T12:47:33.231Z,11.20
2022-11-24T12:50:12.620Z,11.20
2022-11-24T12:52:50.976Z,11.10
2022-11-24T12:55:24.768Z,11.10
2022-11-24T12:58:11.300Z,11.10
2022-11-24T13:00:49.624Z,11.20
2022-11-24T13:03:28.819Z,11.30
2022-11-24T13:06:02.509Z,11.30
2022-11-24T13:08:37.971Z,11.20
2022-11-24T13:11:34.389Z,11.20
2022-11-24T13:14:11.164Z,11.30
2022-11-24T13:17:21.911Z,11.30
2022-11-24T13:19:42.574Z,11.30
2022-11-24T13:22:18.093Z,11.30
2022-11-24T13:25:07.431Z,11.30
2022-11-24T13:27:48.118Z,11.30
2022-11-24T13:30:53.153Z,11.30
2022-11-24T13:33:45.089Z,11.30
2022-11-24T13:36:32.612Z,11.10
2022-11-24T13:39:03.948Z,11.00
2022-11-24T13:42:41.182Z,10.90
2022-11-24T13:45:01.852Z,10.80
2022-11-24T13:47:41.445Z,10.80
2022-11-24T13:50:14.274Z,10.80
2022-11-24T13:52:47.371Z,10.80
2022-11-24T13:55:33.252Z,10.80
2022-11-24T13:58:20.499Z,10.70
2022-11-24T14:01:13.575Z,10.60
2022-11-24T14:04:21.688Z,10.50
2022-11-24T14:06:41.710Z,10.50
2022-11-24T14:09:24.848Z,10.50
2022-11-24T14:12:05.775Z,10.50
2022-11-24T14:14:34.167Z,10.40
2022-11-24T14:17:24.221Z,10.40
2022-11-24T14:19:53.778Z,10.40
2022-11-24T14:22:24.402Z,10.50
2022-11-24T14:24:57.069Z,10.40
2022-11-24T14:27:30.858Z,10.30
2022-11-24T14:30:00.614Z,10.30
2022-11-24T14:32:30.228Z,10.30
2022-11-24T14:34:58.602Z,10.30
2022-11-24T14:37:26.837Z,10.30
2022-11-24T14:39:54.836Z,10.30
2022-11-24T14:42:25.007Z,10.30
2022-11-24T14:44:56.689Z,10.30
2022-11-24T14:47:31.844Z,10.30
2022-11-24T14:50:10.920Z,10.30
2022-11-24T14:52:46.646Z,10.30
2022-11-24T14:55:27.355Z,10.30
2022-11-24T14:57:55.455Z,10.30
2022-11-24T15:00:29.429Z,10.30
2022-11-24T15:03:16.224Z,10.30
2022-11-24T15:05:55.903Z,10.30
2022-11-24T15:08:25.501Z,10.20
2022-11-24T15:11:00.191Z,10.20
2022-11-24T15:13:30.201Z,10.10
2022-11-24T15:16:03.152Z,10.10
2022-11-24T15:18:38.617Z,10.00
2022-11-24T15:21:07.310Z,9.90
2022-11-24T15:23:36.613Z,9.80
2022-11-24T15:26:30.587Z,9.70
2022-11-24T15:29:00.293Z,9.70
2022-11-24T15:31:28.446Z,9.70
2022-11-24T15:33:57.962Z,9.70
2022-11-24T15:36:25.921Z,9.70
2022-11-24T15:38:53.894Z,9.60
2022-11-24T15:41:23.308Z,9.60
2022-11-24T15:43:58.722Z,9.50
2022-11-24T15:46:27.936Z,9.40
2022-11-24T15:48:57.599Z,9.30
2022-11-24T15:51:27.291Z,9.20
2022-11-24T15:54:00.677Z,9.10
2022-11-24T15:56:31.879Z,9.10
2022-11-24T15:58:59.987Z,9.00
2022-11-24T16:01:31.577Z,8.90
2022-11-24T16:04:01.688Z,8.80
2022-11-24T16:06:29.710Z,8.80
2022-11-24T16:08:59.026Z,8.70
2022-11-24T16:11:27.678Z,8.60
2022-11-24T16:13:55.735Z,8.50
2022-11-24T16:16:24.868Z,8.50
2022-11-24T16:18:53.134Z,8.40
2022-11-24T16:21:23.252Z,8.40
2022-11-24T16:23:51.376Z,8.40
2022-11-24T16:26:19.429Z,8.50
2022-11-24T16:28:47.637Z,8.50
2022-11-24T16:31:16.508Z,8.70
2022-11-24T16:33:46.316Z,8.70
2022-11-24T16:36:15.345Z,8.80
2022-11-24T16:38:45.391Z,8.80
2022-11-24T16:41:14.408Z,8.70
2022-11-24T16:43:42.913Z,8.60
2022-11-24T16:46:22.012Z,8.60
2022-11-24T16:48:51.682Z,8.40
2022-11-24T16:51:21.346Z,8.40
2022-11-24T16:53:59.264Z,8.30
2022-11-24T16:56:28.475Z,8.20
2022-11-24T16:58:57.044Z,8.30
2022-11-24T17:01:26.117Z,8.30
2022-11-24T17:03:54.641Z,8.30
2022-11-24T17:06:23.553Z,8.30
2022-11-24T17:08:53.072Z,8.20
2022-11-24T17:11:22.867Z,8.20
2022-11-24T17:13:52.084Z,8.20
2022-11-24T17:16:21.948Z,8.20
2022-11-24T17:18:50.641Z,8.20
2022-11-24T17:21:20.401Z,8.30
2022-11-24T17:23:48.679Z,8.30
2022-11-24T17:26:18.952Z,8.30
2022-11-24T17:28:46.981Z,8.30
2022-11-24T17:31:20.830Z,8.50
2022-11-24T17:33:49.585Z,8.50
2022-11-24T17:36:17.987Z,8.50
2022-11-24T17:38:46.480Z,8.50
2022-11-24T17:41:16.928Z,8.50
2022-11-24T17:43:44.980Z,8.40
2022-11-24T17:46:12.919Z,8.50
2022-11-24T17:48:41.448Z,8.40
2022-11-24T17:51:13.320Z,8.40
2022-11-24T17:53:43.005Z,8.40
2022-11-24T17:56:14.152Z,8.50
2022-11-24T17:58:43.652Z,8.40
2022-11-24T18:01:12.777Z,8.30
2022-11-24T18:03:41.510Z,8.30
2022-11-24T18:06:11.236Z,8.30
2022-11-24T18:08:40.898Z,8.20
2022-11-24T18:11:10.729Z,8.10
2022-11-24T18:16:30.428Z,8.00
2022-11-24T18:19:08.485Z,7.90
2022-11-24T18:21:38.034Z,7.80
2022-11-24T18:24:06.473Z,7.70
2022-11-24T18:26:34.633Z,7.60
2022-11-24T18:29:02.802Z,7.50
2022-11-24T18:31:34.357Z,7.50
2022-11-24T18:34:03.230Z,7.40
2022-11-24T18:36:31.280Z,7.30
2022-11-24T18:39:01.737Z,7.30
2022-11-24T18:41:29.756Z,7.30
2022-11-24T18:43:57.766Z,7.20
2022-11-24T18:46:25.892Z,7.20
2022-11-24T18:48:56.306Z,7.10
2022-11-24T18:51:24.398Z,7.10
2022-11-24T18:53:54.556Z,7.10
2022-11-24T18:56:22.807Z,7.10
2022-11-24T18:58:53.556Z,7.20
2022-11-24T19:01:24.365Z,7.20
2022-11-24T19:03:55.814Z,7.30
2022-11-24T19:06:28.730Z,7.40
2022-11-24T19:08:57.296Z,7.50
2022-11-24T19:11:26.721Z,7.50
2022-11-24T19:13:54.763Z,7.50
2022-11-24T19:16:23.227Z,7.60
2022-11-24T19:18:54.047Z,7.60
2022-11-24T19:21:24.161Z,7.70
2022-11-24T19:23:52.249Z,7.70
2022-11-24T19:26:20.870Z,7.80
2022-11-24T19:28:48.846Z,7.80
2022-11-24T19:31:18.379Z,7.80
2022-11-24T19:33:47.038Z,7.80
2022-11-24T19:36:17.728Z,7.80
2022-11-24T19:38:51.254Z,7.80
2022-11-24T19:41:21.093Z,7.80
2022-11-24T19:43:49.538Z,7.80
2022-11-24T19:46:19.401Z,7.90
2022-11-24T19:48:50.290Z,7.60
2022-11-24T19:51:19.831Z,7.70
2022-11-24T19:53:49.433Z,7.60
2022-11-24T19:56:20.043Z,7.50
2022-11-24T19:58:48.588Z,7.50
2022-11-24T20:01:18.709Z,7.40
2022-11-24T20:03:49.303Z,7.30
2022-11-24T20:06:17.610Z,7.30
2022-11-24T20:08:45.599Z,7.30
2022-11-24T20:11:17.404Z,7.20
2022-11-24T20:13:47.220Z,7.20
2022-11-24T20:16:17.303Z,7.20
2022-11-24T20:18:47.321Z,7.30
2022-11-24T20:21:17.319Z,7.30
2022-11-24T20:23:47.841Z,7.30
2022-11-24T20:26:20.388Z,7.30
2022-11-24T20:28:49.097Z,7.30
2022-11-24T20:31:19.542Z,7.30
2022-11-24T20:33:47.618Z,7.30
2022-11-24T20:36:17.249Z,7.30
2022-11-24T20:38:46.227Z,7.30
2022-11-24T20:41:17.759Z,7.40
2022-11-24T20:43:46.604Z,7.40
2022-11-24T20:46:17.264Z,7.40
2022-11-24T20:48:46.352Z,7.40
2022-11-24T20:51:16.800Z,7.40
2022-11-24T20:53:45.369Z,7.40
2022-11-24T20:56:14.834Z,7.40
2022-11-24T20:58:44.472Z,7.30
2022-11-24T21:01:15.072Z,7.20
2022-11-24T21:03:43.887Z,7.20
2022-11-24T21:06:16.071Z,7.00
2022-11-24T21:08:44.286Z,6.90
2022-11-24T21:11:14.167Z,6.80
2022-11-24T21:13:45.379Z,6.60
2022-11-24T21:16:15.219Z,6.50
2022-11-24T21:18:44.539Z,6.50
2022-11-24T21:21:12.915Z,6.40
2022-11-24T21:23:41.124Z,6.30
2022-11-24T21:26:15.054Z,6.30
2022-11-24T21:28:47.985Z,6.30
2022-11-24T21:31:18.628Z,6.30
2022-11-24T21:33:48.710Z,6.20
2022-11-24T21:36:19.074Z,6.20
2022-11-24T21:38:51.967Z,6.10
2022-11-24T21:41:23.256Z,6.10
2022-11-24T21:43:55.638Z,6.10
2022-11-24T21:46:24.878Z,6.10
2022-11-24T21:48:53.316Z,6.10
2022-11-24T21:51:22.644Z,6.00
2022-11-24T21:53:50.862Z,6.00
2022-11-24T21:56:20.605Z,6.00
2022-11-24T21:58:53.231Z,5.90
2022-11-24T22:01:27.571Z,5.80
2022-11-24T22:03:58.151Z,5.90
2022-11-24T22:06:26.441Z,5.90
2022-11-24T22:08:55.994Z,5.90
2022-11-24T22:11:26.000Z,5.90
2022-11-24T22:13:54.229Z,5.80
2022-11-24T22:16:26.037Z,5.70
2022-11-24T22:18:54.530Z,5.70
2022-11-24T22:21:29.269Z,5.70
2022-11-24T22:23:57.739Z,5.60
2022-11-24T22:26:29.729Z,5.60
2022-11-24T22:28:58.532Z,5.50
2022-11-24T22:31:29.628Z,5.50
2022-11-24T22:33:58.921Z,5.40
2022-11-24T22:36:28.937Z,5.40
2022-11-24T22:38:58.130Z,5.40
2022-11-24T22:41:26.682Z,5.30
2022-11-24T22:43:55.202Z,5.30
2022-11-24T22:46:26.872Z,5.30
2022-11-24T22:48:59.231Z,5.30
2022-11-24T22:51:28.913Z,5.30
2022-11-24T22:53:58.495Z,5.30
2022-11-24T22:56:27.899Z,5.30
2022-11-24T22:58:56.037Z,5.20
2022-11-24T23:01:25.747Z,5.20
2022-11-24T23:03:56.316Z,5.10
2022-11-24T23:06:25.862Z,5.10
2022-11-24T23:08:54.577Z,5.10
2022-11-24T23:11:30.741Z,5.00
2022-11-24T23:14:01.520Z,5.00
2022-11-24T23:16:32.541Z,5.00
2022-11-24T23:19:02.094Z,5.00
2022-11-24T23:21:32.172Z,5.00
2022-11-24T23:24:02.130Z,4.90
2022-11-24T23:26:31.864Z,4.90
2022-11-24T23:28:59.988Z,4.90
2022-11-24T23:31:29.747Z,4.80
2022-11-24T23:33:59.446Z,4.90
2022-11-24T23:36:29.716Z,4.90
2022-11-24T23:38:57.977Z,5.00
2022-11-24T23:41:27.343Z,5.00
2022-11-24T23:43:55.483Z,5.00
2022-11-24T23:46:25.262Z,4.90
2022-11-24T23:48:56.184Z,5.00
2022-11-24T23:51:26.147Z,4.90
2022-11-24T23:53:56.435Z,4.90
2022-11-24T23:56:29.168Z,4.90
2022-11-24T23:58:57.160Z,4.90
